createdAt,value
2022-08-14T00:01:57.981Z,6.13
2022-08-14T00:04:34.273Z,4.50
2022-08-14T00:07:07.092Z,5.25
2022-08-14T00:09:39.830Z,6.50
2022-08-14T00:12:33.134Z,4.80
2022-08-14T00:15:03.302Z,4.72
2022-08-14T00:17:38.129Z,5.03
2022-08-14T00:20:16.092Z,4.10
2022-08-14T00:22:57.869Z,6.57
2022-08-14T00:25:41.615Z,4.70
2022-08-14T00:28:15.024Z,5.55
2022-08-14T00:30:43.392Z,4.45
2022-08-14T00:33:16.276Z,4.93
2022-08-14T00:36:36.737Z,4.10
2022-08-14T00:38:34.911Z,4.10
2022-08-14T00:41:07.000Z,4.80
2022-08-14T00:43:43.079Z,4.38
2022-08-14T00:46:32.168Z,5.13
2022-08-14T00:49:00.795Z,4.53
2022-08-14T00:51:34.856Z,5.38
2022-08-14T00:54:11.073Z,5.28
2022-08-14T00:56:54.813Z,6.03
2022-08-14T00:59:25.780Z,5.18
2022-08-14T01:01:58.148Z,4.70
2022-08-14T01:04:52.157Z,5.47
2022-08-14T01:07:19.814Z,4.85
2022-08-14T01:10:01.276Z,4.90
2022-08-14T01:12:30.295Z,8.20
2022-08-14T01:15:02.696Z,5.72
2022-08-14T01:17:52.133Z,4.97
2022-08-14T01:20:40.708Z,5.38
2022-08-14T01:23:16.033Z,5.97
2022-08-14T01:25:46.966Z,8.32
2022-08-14T01:28:47.047Z,7.25
2022-08-14T01:31:01.918Z,5.63
2022-08-14T01:33:30.262Z,6.15
2022-08-14T01:36:05.047Z,6.80
2022-08-14T01:38:37.288Z,6.30
2022-08-14T01:41:15.038Z,4.88
2022-08-14T01:44:01.067Z,5.97
2022-08-14T01:46:41.782Z,6.40
2022-08-14T01:49:18.638Z,5.97
2022-08-14T01:51:49.652Z,4.38
2022-08-14T01:54:24.978Z,4.97
2022-08-14T01:57:11.639Z,6.35
2022-08-14T01:59:41.111Z,4.70
2022-08-14T02:02:18.984Z,6.40
2022-08-14T02:04:57.314Z,8.10
2022-08-14T02:07:27.289Z,6.93
2022-08-14T02:10:15.972Z,6.38
2022-08-14T02:12:54.076Z,5.30
2022-08-14T02:15:21.982Z,5.15
2022-08-14T02:17:50.716Z,5.22
2022-08-14T02:20:23.427Z,6.60
2022-08-14T02:22:53.632Z,6.43
2022-08-14T02:25:24.206Z,4.88
2022-08-14T02:28:23.428Z,7.30
2022-08-14T02:30:44.717Z,5.22
2022-08-14T02:33:15.422Z,6.57
2022-08-14T02:35:43.576Z,5.57
2022-08-14T02:38:11.545Z,7.85
2022-08-14T02:40:39.243Z,7.68
2022-08-14T02:43:08.766Z,5.15
2022-08-14T02:45:38.498Z,5.05
2022-08-14T02:49:03.484Z,6.53
2022-08-14T02:51:05.162Z,5.55
2022-08-14T02:53:33.282Z,5.30
2022-08-14T02:56:10.166Z,6.43
2022-08-14T02:58:51.861Z,5.78
2022-08-14T03:01:26.197Z,6.03
2022-08-14T03:03:59.100Z,5.88
2022-08-14T03:06:49.118Z,5.85
2022-08-14T03:09:13.585Z,6.75
2022-08-14T03:11:44.793Z,6.82
2022-08-14T03:14:15.447Z,7.47
2022-08-14T03:16:45.620Z,6.13
2022-08-14T03:19:19.673Z,6.18
2022-08-14T03:21:47.257Z,5.45
2022-08-14T03:24:23.273Z,6.05
2022-08-14T03:26:56.181Z,5.32
2022-08-14T03:29:27.668Z,6.88
2022-08-14T03:31:56.766Z,5.82
2022-08-14T03:34:52.826Z,6.85
2022-08-14T03:37:39.279Z,6.07
2022-08-14T03:40:01.537Z,8.63
2022-08-14T03:42:35.668Z,13.27
2022-08-14T03:45:25.640Z,5.88
2022-08-14T03:47:58.781Z,8.73
2022-08-14T03:50:31.171Z,8.18
2022-08-14T03:53:01.632Z,6.65
2022-08-14T03:55:30.498Z,8.73
2022-08-14T03:58:00.376Z,8.80
2022-08-14T04:00:44.314Z,6.18
2022-08-14T04:03:16.672Z,7.35
2022-08-14T04:05:48.949Z,6.60
2022-08-14T04:08:29.845Z,6.55
2022-08-14T04:11:00.927Z,7.90
2022-08-14T04:13:31.489Z,8.85
2022-08-14T04:16:04.967Z,6.30
2022-08-14T04:18:39.554Z,6.78
2022-08-14T04:21:07.038Z,5.93
2022-08-14T04:23:35.276Z,9.32
2022-08-14T04:26:08.353Z,5.97
2022-08-14T04:29:06.891Z,8.65
2022-08-14T04:32:58.814Z,6.18
2022-08-14T04:34:24.130Z,7.22
2022-08-14T04:37:17.478Z,6.45
2022-08-14T04:40:12.482Z,6.63
2022-08-14T04:42:59.224Z,6.45
2022-08-14T04:45:40.712Z,9.07
2022-08-14T04:48:39.140Z,9.57
2022-08-14T04:51:03.570Z,6.32
2022-08-14T04:53:35.692Z,7.05
2022-08-14T04:56:05.929Z,6.38
2022-08-14T04:58:39.086Z,8.23
2022-08-14T05:01:12.539Z,7.55
2022-08-14T05:03:44.499Z,9.93
2022-08-14T05:06:35.181Z,7.50
2022-08-14T05:09:00.706Z,7.32
2022-08-14T05:11:28.345Z,9.85
2022-08-14T05:14:16.972Z,7.45
2022-08-14T05:16:46.569Z,8.05
2022-08-14T05:19:19.161Z,8.43
2022-08-14T05:22:15.867Z,9.70
2022-08-14T05:24:51.360Z,10.45
2022-08-14T05:27:22.323Z,10.13
2022-08-14T05:29:55.330Z,10.50
2022-08-14T05:32:26.867Z,10.38
2022-08-14T05:34:59.394Z,7.85
2022-08-14T05:37:28.549Z,10.25
2022-08-14T05:39:59.127Z,8.68
2022-08-14T05:42:31.837Z,9.10
2022-08-14T05:45:01.812Z,8.73
2022-08-14T05:47:38.927Z,8.60
2022-08-14T05:50:17.655Z,10.90
2022-08-14T05:52:48.337Z,8.43
2022-08-14T05:55:15.705Z,8.48
2022-08-14T05:58:03.414Z,8.80
2022-08-14T06:00:39.613Z,9.68
2022-08-14T06:03:11.346Z,9.93
2022-08-14T06:05:40.511Z,8.57
2022-08-14T06:08:31.227Z,7.85
2022-08-14T06:11:08.423Z,9.05
2022-08-14T06:13:44.720Z,9.10
2022-08-14T06:16:17.561Z,9.50
2022-08-14T06:18:53.011Z,8.93
2022-08-14T06:21:24.186Z,8.75
2022-08-14T06:23:52.247Z,10.80
2022-08-14T06:26:20.452Z,12.45
2022-08-14T06:28:48.135Z,9.57
2022-08-14T06:31:21.071Z,10.15
2022-08-14T06:35:10.642Z,9.40
2022-08-14T06:36:38.009Z,10.65
2022-08-14T06:39:09.934Z,12.52
2022-08-14T06:41:59.466Z,8.38
2022-08-14T06:44:30.656Z,11.63
2022-08-14T06:47:04.791Z,9.13
2022-08-14T06:49:40.491Z,8.13
2022-08-14T06:52:15.218Z,8.48
2022-08-14T06:54:43.312Z,8.65
2022-08-14T06:57:12.049Z,10.93
2022-08-14T06:59:40.318Z,12.60
2022-08-14T07:02:28.781Z,8.82
2022-08-14T07:05:21.117Z,7.43
2022-08-14T07:07:51.003Z,8.50
2022-08-14T07:10:18.153Z,7.18
2022-08-14T07:13:01.104Z,9.82
2022-08-14T07:15:29.595Z,7.93
2022-08-14T07:18:00.608Z,12.80
2022-08-14T07:20:30.992Z,7.60
2022-08-14T07:23:07.695Z,9.65
2022-08-14T07:25:38.545Z,8.80
2022-08-14T07:28:43.405Z,7.15
2022-08-14T07:31:12.586Z,10.23
2022-08-14T07:33:50.825Z,10.52
2022-08-14T07:36:26.703Z,7.35
2022-08-14T07:38:56.546Z,7.15
2022-08-14T07:41:23.950Z,9.52
2022-08-14T07:43:55.325Z,8.05
2022-08-14T07:46:29.487Z,8.73
2022-08-14T07:48:58.675Z,7.45
2022-08-14T07:51:34.481Z,7.03
2022-08-14T07:54:06.938Z,8.40
2022-08-14T07:56:47.062Z,10.13
2022-08-14T07:59:18.539Z,7.10
2022-08-14T08:01:48.058Z,6.35
2022-08-14T08:04:27.221Z,6.05
2022-08-14T08:06:55.032Z,6.50
2022-08-14T08:09:29.878Z,7.78
2022-08-14T08:12:04.931Z,6.65
2022-08-14T08:14:56.135Z,6.95
2022-08-14T08:17:24.305Z,6.63
2022-08-14T08:19:51.954Z,6.28
2022-08-14T08:22:21.811Z,6.50
2022-08-14T08:24:50.561Z,5.97
2022-08-14T08:27:22.375Z,6.03
2022-08-14T08:29:51.273Z,6.28
2022-08-14T08:32:19.163Z,9.40
2022-08-14T08:34:48.466Z,9.30
2022-08-14T08:37:16.670Z,7.00
2022-08-14T08:40:02.866Z,7.38
2022-08-14T08:42:38.837Z,7.72
2022-08-14T08:45:12.142Z,6.53
2022-08-14T08:47:43.305Z,6.75
2022-08-14T08:53:10.334Z,8.40
2022-08-14T08:55:42.639Z,8.75
2022-08-14T08:58:24.889Z,5.80
2022-08-14T09:00:56.365Z,6.65
2022-08-14T09:03:27.910Z,7.30
2022-08-14T09:06:09.607Z,7.07
2022-08-14T09:08:52.856Z,5.93
2022-08-14T09:11:21.419Z,5.28
2022-08-14T09:13:53.911Z,4.30
2022-08-14T09:16:25.751Z,6.20
2022-08-14T09:18:54.932Z,6.53
2022-08-14T09:21:24.991Z,5.25
2022-08-14T09:24:28.404Z,5.47
2022-08-14T09:26:48.929Z,4.85
2022-08-14T09:29:20.007Z,6.38
2022-08-14T09:31:57.639Z,8.45
2022-08-14T09:34:36.668Z,10.95
2022-08-14T09:37:31.701Z,4.70
2022-08-14T09:40:29.934Z,4.38
2022-08-14T09:43:22.643Z,4.72
2022-08-14T09:45:53.001Z,5.07
2022-08-14T09:48:30.277Z,6.00
2022-08-14T09:54:19.066Z,6.03
2022-08-14T09:56:56.815Z,4.43
2022-08-14T09:59:28.011Z,3.85
2022-08-14T10:01:59.715Z,4.38
2022-08-14T10:04:33.549Z,4.55
2022-08-14T10:07:05.404Z,4.43
2022-08-14T10:09:33.225Z,3.88
2022-08-14T10:12:04.368Z,6.53
2022-08-14T10:14:36.682Z,5.43
2022-08-14T10:17:08.375Z,4.60
2022-08-14T10:19:47.068Z,4.82
2022-08-14T10:23:14.917Z,3.80
2022-08-14T10:25:15.991Z,4.50
2022-08-14T10:27:51.088Z,6.63
2022-08-14T10:30:25.471Z,5.45
2022-08-14T10:32:55.651Z,4.13
2022-08-14T10:35:23.357Z,4.30
2022-08-14T10:38:01.472Z,4.35
2022-08-14T10:40:44.376Z,4.68
2022-08-14T10:43:25.451Z,6.40
2022-08-14T10:46:21.764Z,4.85
2022-08-14T10:49:04.064Z,9.32
2022-08-14T10:51:36.424Z,3.92
2022-08-14T10:54:17.114Z,3.20
2022-08-14T10:57:11.422Z,4.35
2022-08-14T11:00:15.045Z,4.07
2022-08-14T11:03:01.639Z,4.18
2022-08-14T11:05:55.960Z,5.38
2022-08-14T11:08:34.162Z,3.88
2022-08-14T11:11:05.436Z,5.15
2022-08-14T11:13:32.827Z,5.20
2022-08-14T11:16:02.424Z,3.78
2022-08-14T11:18:39.873Z,3.95
2022-08-14T11:21:09.411Z,5.43
2022-08-14T11:23:41.269Z,3.83
2022-08-14T11:26:14.112Z,4.82
2022-08-14T11:28:47.461Z,3.53
2022-08-14T11:31:21.978Z,7.47
2022-08-14T11:33:55.422Z,5.93
2022-08-14T11:36:56.964Z,5.72
2022-08-14T11:39:33.882Z,5.88
2022-08-14T11:42:55.568Z,3.35
2022-08-14T11:45:00.361Z,3.30
2022-08-14T11:47:35.378Z,3.55
2022-08-14T11:50:34.022Z,4.43
2022-08-14T11:53:07.875Z,3.40
2022-08-14T11:55:39.361Z,4.70
2022-08-14T11:58:23.649Z,3.80
2022-08-14T12:01:02.537Z,3.10
2022-08-14T12:03:59.546Z,3.80
2022-08-14T12:06:39.362Z,3.58
2022-08-14T12:09:08.848Z,2.88
2022-08-14T12:11:47.464Z,2.72
2022-08-14T12:14:29.703Z,2.90
2022-08-14T12:17:11.876Z,2.38
2022-08-14T12:19:50.621Z,2.40
2022-08-14T12:22:30.092Z,2.47
2022-08-14T12:24:58.029Z,2.95
2022-08-14T12:27:41.588Z,2.60
2022-08-14T12:30:21.156Z,3.20
2022-08-14T12:32:48.589Z,3.38
2022-08-14T12:35:17.896Z,4.97
2022-08-14T12:37:50.934Z,3.25
2022-08-14T12:40:24.359Z,7.55
2022-08-14T12:42:54.111Z,3.63
2022-08-14T12:45:33.581Z,3.80
2022-08-14T12:48:21.308Z,3.53
2022-08-14T12:50:53.367Z,4.40
2022-08-14T12:53:22.056Z,4.57
2022-08-14T12:56:22.485Z,4.65
2022-08-14T12:58:52.282Z,3.88
2022-08-14T13:01:27.314Z,7.38
2022-08-14T13:04:13.555Z,3.85
2022-08-14T13:06:50.725Z,3.15
2022-08-14T13:09:20.578Z,5.82
2022-08-14T13:11:59.225Z,4.90
2022-08-14T13:14:41.944Z,5.20
2022-08-14T13:17:11.683Z,5.30
2022-08-14T13:19:40.814Z,3.83
2022-08-14T13:22:10.348Z,4.75
2022-08-14T13:24:55.958Z,6.20
2022-08-14T13:27:25.071Z,6.25
2022-08-14T13:29:59.199Z,3.58
2022-08-14T13:32:28.735Z,3.72
2022-08-14T13:34:58.106Z,3.47
2022-08-14T13:37:27.499Z,4.65
2022-08-14T13:39:56.853Z,4.72
2022-08-14T13:42:30.927Z,4.05
2022-08-14T13:45:02.376Z,3.72
2022-08-14T13:47:32.444Z,4.70
2022-08-14T13:50:04.688Z,5.03
2022-08-14T13:52:51.423Z,4.55
2022-08-14T13:55:29.846Z,4.22
2022-08-14T13:58:04.177Z,4.05
2022-08-14T14:00:53.318Z,5.13
2022-08-14T14:03:24.432Z,3.90
2022-08-14T14:05:55.257Z,5.72
2022-08-14T14:08:46.627Z,6.22
2022-08-14T14:11:15.732Z,3.50
2022-08-14T14:13:46.353Z,5.70
2022-08-14T14:16:22.087Z,3.60
2022-08-14T14:19:08.729Z,5.18
2022-08-14T14:21:37.571Z,3.22
2022-08-14T14:24:06.105Z,3.33
2022-08-14T14:26:35.942Z,3.85
2022-08-14T14:29:06.349Z,3.13
2022-08-14T14:31:39.006Z,6.43
2022-08-14T14:34:19.988Z,3.50
2022-08-14T14:37:02.874Z,3.97
2022-08-14T14:39:37.628Z,3.40
2022-08-14T14:42:08.206Z,3.70
2022-08-14T14:44:42.474Z,3.60
2022-08-14T14:47:13.447Z,3.58
2022-08-14T14:49:54.517Z,4.50
2022-08-14T14:52:27.740Z,3.33
2022-08-14T14:54:58.203Z,3.42
2022-08-14T14:57:35.719Z,3.35
2022-08-14T15:00:13.299Z,6.32
2022-08-14T15:02:57.838Z,3.15
2022-08-14T15:05:28.358Z,3.10
2022-08-14T15:07:55.702Z,4.72
2022-08-14T15:10:28.159Z,3.67
2022-08-14T15:13:04.029Z,6.50
2022-08-14T15:15:37.540Z,3.83
2022-08-14T15:18:14.939Z,3.47
2022-08-14T15:20:57.538Z,2.90
2022-08-14T15:23:43.751Z,4.75
2022-08-14T15:26:23.352Z,3.85
2022-08-14T15:29:04.807Z,3.25
2022-08-14T15:31:36.562Z,6.20
2022-08-14T15:34:43.445Z,5.90
2022-08-14T15:37:12.759Z,2.80
2022-08-14T15:39:42.345Z,3.30
2022-08-14T15:42:16.030Z,3.10
2022-08-14T15:44:58.301Z,4.32
2022-08-14T15:47:31.415Z,4.15
2022-08-14T15:50:00.608Z,6.55
2022-08-14T15:52:35.148Z,3.70
2022-08-14T15:55:15.347Z,5.80
2022-08-14T15:58:01.836Z,3.67
2022-08-14T16:00:55.308Z,3.08
2022-08-14T16:03:27.649Z,3.40
2022-08-14T16:06:11.071Z,4.40
2022-08-14T16:08:50.132Z,3.40
2022-08-14T16:11:32.723Z,3.67
2022-08-14T16:14:01.611Z,3.42
2022-08-14T16:16:49.715Z,4.47
2022-08-14T16:19:23.723Z,2.95
2022-08-14T16:22:01.493Z,2.90
2022-08-14T16:24:59.650Z,2.92
2022-08-14T16:27:38.928Z,5.03
2022-08-14T16:30:25.277Z,2.92
2022-08-14T16:32:57.322Z,2.83
2022-08-14T16:35:42.870Z,4.07
2022-08-14T16:38:46.260Z,4.97
2022-08-14T16:41:18.167Z,4.80
2022-08-14T16:44:32.023Z,2.95
2022-08-14T16:47:05.705Z,3.20
2022-08-14T16:50:03.525Z,3.50
2022-08-14T16:52:26.346Z,5.50
2022-08-14T16:55:13.856Z,3.25
2022-08-14T16:57:54.560Z,4.22
2022-08-14T17:00:43.058Z,3.47
2022-08-14T17:03:13.002Z,3.70
2022-08-14T17:05:46.619Z,3.50
2022-08-14T17:08:32.681Z,5.72
2022-08-14T17:11:10.656Z,4.95
2022-08-14T17:13:59.666Z,3.65
2022-08-14T17:16:37.303Z,3.40
2022-08-14T17:19:13.589Z,4.97
2022-08-14T17:21:47.558Z,3.80
2022-08-14T17:24:57.230Z,3.70
2022-08-14T17:27:10.556Z,10.55
2022-08-14T17:29:44.770Z,4.60
2022-08-14T17:32:44.789Z,5.35
2022-08-14T17:35:27.591Z,4.10
2022-08-14T17:38:38.205Z,3.63
2022-08-14T17:41:23.826Z,3.63
2022-08-14T17:46:43.317Z,3.50
2022-08-14T17:49:18.100Z,5.68
2022-08-14T17:52:17.691Z,3.42
2022-08-14T17:54:58.981Z,5.20
2022-08-14T17:57:35.508Z,6.75
2022-08-14T18:00:16.376Z,4.00
2022-08-14T18:02:50.554Z,4.85
2022-08-14T18:05:23.532Z,4.30
2022-08-14T18:08:33.167Z,4.05
2022-08-14T18:10:56.909Z,4.95
2022-08-14T18:13:49.881Z,4.78
2022-08-14T18:16:19.692Z,5.07
2022-08-14T18:18:49.252Z,5.35
2022-08-14T18:21:41.591Z,4.18
2022-08-14T18:24:04.894Z,4.38
2022-08-14T18:27:10.423Z,5.25
2022-08-14T18:29:54.793Z,4.72
2022-08-14T18:32:31.816Z,3.90
2022-08-14T18:35:11.341Z,4.13
2022-08-14T18:37:42.051Z,4.30
2022-08-14T18:40:22.954Z,4.18
2022-08-14T18:43:03.191Z,4.72
2022-08-14T18:45:41.483Z,5.22
2022-08-14T18:48:16.164Z,4.50
2022-08-14T18:50:48.822Z,4.60
2022-08-14T18:53:24.451Z,5.22
2022-08-14T18:55:59.992Z,5.32
2022-08-14T18:58:46.456Z,4.43
2022-08-14T19:01:25.842Z,5.60
2022-08-14T19:03:54.551Z,4.20
2022-08-14T19:06:55.755Z,3.92
2022-08-14T19:10:00.538Z,4.35
2022-08-14T19:13:01.231Z,3.97
2022-08-14T19:15:42.756Z,4.40
2022-08-14T19:18:28.413Z,4.05
2022-08-14T19:21:12.936Z,7.40
2022-08-14T19:23:44.132Z,5.85
2022-08-14T19:26:37.620Z,6.30
2022-08-14T19:29:37.466Z,5.53
2022-08-14T19:32:33.137Z,5.75
2022-08-14T19:35:19.404Z,4.82
2022-08-14T19:37:54.140Z,5.72
2022-08-14T19:40:41.989Z,6.53
2022-08-14T19:43:10.633Z,4.68
2022-08-14T19:45:39.178Z,5.65
2022-08-14T19:48:14.477Z,6.72
2022-08-14T19:50:46.265Z,6.88
2022-08-14T19:53:17.570Z,8.27
2022-08-14T19:56:04.879Z,7.43
2022-08-14T19:58:54.074Z,5.43
2022-08-14T20:01:38.376Z,8.05
2022-08-14T20:04:47.054Z,6.13
2022-08-14T20:07:01.531Z,5.25
2022-08-14T20:11:02.960Z,5.38
2022-08-14T20:12:28.991Z,5.18
2022-08-14T20:15:15.283Z,5.13
2022-08-14T20:17:52.760Z,7.43
2022-08-14T20:20:31.991Z,7.05
2022-08-14T20:23:11.962Z,5.50
2022-08-14T20:25:56.502Z,7.22
2022-08-14T20:28:32.912Z,5.35
2022-08-14T20:31:18.130Z,7.55
2022-08-14T20:34:24.954Z,5.38
2022-08-14T20:37:22.065Z,7.80
2022-08-14T20:39:54.357Z,6.00
2022-08-14T20:42:43.571Z,6.40
2022-08-14T20:45:23.521Z,6.00
2022-08-14T20:48:01.077Z,7.40
2022-08-14T20:50:30.108Z,6.65
2022-08-14T20:53:00.073Z,6.65
2022-08-14T20:55:37.262Z,5.55
2022-08-14T20:58:43.264Z,5.70
2022-08-14T21:01:18.942Z,7.22
2022-08-14T21:03:58.165Z,6.28
2022-08-14T21:07:23.449Z,7.22
2022-08-14T21:10:05.814Z,7.13
2022-08-14T21:12:35.024Z,6.50
2022-08-14T21:15:10.273Z,6.63
2022-08-14T21:17:47.204Z,6.68
2022-08-14T21:20:26.147Z,8.15
2022-08-14T21:23:00.469Z,6.28
2022-08-14T21:25:31.802Z,9.60
2022-08-14T21:28:05.562Z,5.70
2022-08-14T21:30:46.747Z,6.22
2022-08-14T21:33:21.641Z,5.50
2022-08-14T21:35:55.453Z,7.50
2022-08-14T21:38:33.626Z,7.72
2022-08-14T21:41:43.066Z,6.50
2022-08-14T21:44:17.798Z,6.00
2022-08-14T21:46:54.387Z,8.82
2022-08-14T21:49:33.826Z,6.43
2022-08-14T21:52:52.166Z,5.90
2022-08-14T21:55:09.404Z,7.88
2022-08-14T21:57:55.773Z,6.30
2022-08-14T22:00:42.201Z,5.82
2022-08-14T22:03:17.133Z,9.18
2022-08-14T22:05:49.606Z,7.15
2022-08-14T22:08:21.268Z,6.85
2022-08-14T22:10:51.566Z,6.40
2022-08-14T22:13:23.903Z,6.60
2022-08-14T22:15:54.336Z,8.60
2022-08-14T22:18:25.594Z,6.57
2022-08-14T22:20:56.559Z,6.53
2022-08-14T22:23:25.811Z,7.47
2022-08-14T22:25:53.499Z,6.38
2022-08-14T22:28:33.131Z,6.97
2022-08-14T22:31:09.873Z,6.07
2022-08-14T22:33:39.429Z,6.32
2022-08-14T22:36:27.492Z,7.22
2022-08-14T22:39:02.484Z,6.85
2022-08-14T22:41:32.784Z,5.90
2022-08-14T22:44:14.364Z,8.30
2022-08-14T22:46:43.554Z,6.38
2022-08-14T22:49:16.907Z,7.47
2022-08-14T22:51:58.080Z,6.30
2022-08-14T22:54:53.114Z,6.53
2022-08-14T22:57:15.018Z,6.18
2022-08-14T22:59:42.092Z,6.22
2022-08-14T23:02:21.364Z,6.40
2022-08-14T23:05:03.330Z,6.13
2022-08-14T23:09:00.326Z,6.95
2022-08-14T23:10:32.820Z,6.22
2022-08-14T23:13:03.615Z,6.57
2022-08-14T23:15:31.165Z,6.50
2022-08-14T23:17:59.609Z,8.55
2022-08-14T23:20:31.861Z,6.75
2022-08-14T23:22:59.047Z,6.80
2022-08-14T23:25:56.749Z,6.88
2022-08-14T23:28:32.684Z,7.68
2022-08-14T23:31:02.577Z,7.97
2022-08-14T23:33:34.769Z,7.43
2022-08-14T23:36:28.506Z,8.30
2022-08-14T23:38:53.594Z,7.65
2022-08-14T23:41:21.401Z,6.90
2022-08-14T23:43:54.529Z,7.10
2022-08-14T23:46:24.034Z,7.32
2022-08-14T23:49:02.727Z,6.50
2022-08-14T23:51:36.310Z,7.32
2022-08-14T23:54:05.868Z,7.80
2022-08-14T23:57:02.794Z,7.35
2022-08-14T23:59:31.870Z,7.13
